sensor_id;sensor_type;location;lat;lon;timestamp;P1;durP1;ratioP1;P2;durP2;ratioP2
60370;SDS011;48550;40.588;49.684;2023-08-21T00:00:44;18.02;;;10.45;;
60370;SDS011;48550;40.588;49.684;2023-08-21T00:03:10;15.77;;;7.97;;
60370;SDS011;48550;40.588;49.684;2023-08-21T00:05:36;10.90;;;6.43;;
60370;SDS011;48550;40.588;49.684;2023-08-21T00:08:02;23.85;;;15.57;;
60370;SDS011;48550;40.588;49.684;2023-08-21T00:10:29;26.83;;;17.85;;
60370;SDS011;48550;40.588;49.684;2023-08-21T00:12:55;19.55;;;8.88;;
60370;SDS011;48550;40.588;49.684;2023-08-21T00:15:21;11.70;;;5.60;;
60370;SDS011;48550;40.588;49.684;2023-08-21T00:17:47;8.07;;;3.75;;
60370;SDS011;48550;40.588;49.684;2023-08-21T00:20:12;9.02;;;4.60;;
60370;SDS011;48550;40.588;49.684;2023-08-21T00:22:38;11.98;;;4.55;;
60370;SDS011;48550;40.588;49.684;2023-08-21T00:25:04;9.68;;;4.00;;
60370;SDS011;48550;40.588;49.684;2023-08-21T00:27:30;13.43;;;4.47;;
60370;SDS011;48550;40.588;49.684;2023-08-21T00:29:55;8.05;;;3.70;;
60370;SDS011;48550;40.588;49.684;2023-08-21T00:32:21;8.15;;;3.80;;
60370;SDS011;48550;40.588;49.684;2023-08-21T00:34:47;11.48;;;4.10;;
60370;SDS011;48550;40.588;49.684;2023-08-21T00:37:12;9.48;;;3.60;;
60370;SDS011;48550;40.588;49.684;2023-08-21T00:39:38;8.10;;;5.05;;
60370;SDS011;48550;40.588;49.684;2023-08-21T00:42:03;7.22;;;3.88;;
60370;SDS011;48550;40.588;49.684;2023-08-21T00:44:30;41.17;;;25.73;;
60370;SDS011;48550;40.588;49.684;2023-08-21T00:46:55;15.50;;;8.82;;
60370;SDS011;48550;40.588;49.684;2023-08-21T00:49:21;27.33;;;16.65;;
60370;SDS011;48550;40.588;49.684;2023-08-21T00:51:48;17.10;;;10.32;;
60370;SDS011;48550;40.588;49.684;2023-08-21T00:54:15;12.95;;;8.38;;
60370;SDS011;48550;40.588;49.684;2023-08-21T00:56:41;8.88;;;5.00;;
60370;SDS011;48550;40.588;49.684;2023-08-21T00:59:07;6.10;;;3.80;;
60370;SDS011;48550;40.588;49.684;2023-08-21T01:01:33;9.40;;;4.30;;
60370;SDS011;48550;40.588;49.684;2023-08-21T01:04:00;8.13;;;3.95;;
60370;SDS011;48550;40.588;49.684;2023-08-21T01:06:26;15.13;;;4.20;;
60370;SDS011;48550;40.588;49.684;2023-08-21T01:08:54;8.98;;;4.10;;
60370;SDS011;48550;40.588;49.684;2023-08-21T01:11:42;7.88;;;3.70;;
60370;SDS011;48550;40.588;49.684;2023-08-21T01:16:53;7.18;;;4.43;;
60370;SDS011;48550;40.588;49.684;2023-08-21T01:19:38;11.18;;;4.80;;
60370;SDS011;48550;40.588;49.684;2023-08-21T01:22:06;9.27;;;4.30;;
60370;SDS011;48550;40.588;49.684;2023-08-21T01:24:32;7.90;;;4.13;;
60370;SDS011;48550;40.588;49.684;2023-08-21T01:26:58;7.97;;;3.63;;
60370;SDS011;48550;40.588;49.684;2023-08-21T01:29:24;9.57;;;4.30;;
60370;SDS011;48550;40.588;49.684;2023-08-21T01:31:51;8.85;;;4.57;;
60370;SDS011;48550;40.588;49.684;2023-08-21T01:34:23;9.10;;;3.78;;
60370;SDS011;48550;40.588;49.684;2023-08-21T01:36:51;10.30;;;4.18;;
60370;SDS011;48550;40.588;49.684;2023-08-21T01:39:17;8.80;;;4.03;;
60370;SDS011;48550;40.588;49.684;2023-08-21T01:41:44;8.20;;;3.88;;
60370;SDS011;48550;40.588;49.684;2023-08-21T01:44:09;8.40;;;3.50;;
60370;SDS011;48550;40.588;49.684;2023-08-21T01:46:35;12.32;;;3.88;;
60370;SDS011;48550;40.588;49.684;2023-08-21T01:49:01;7.80;;;3.83;;
60370;SDS011;48550;40.588;49.684;2023-08-21T01:51:26;6.90;;;3.80;;
60370;SDS011;48550;40.588;49.684;2023-08-21T01:53:52;5.85;;;3.80;;
60370;SDS011;48550;40.588;49.684;2023-08-21T01:56:18;8.60;;;3.53;;
60370;SDS011;48550;40.588;49.684;2023-08-21T01:58:43;7.47;;;4.05;;
60370;SDS011;48550;40.588;49.684;2023-08-21T02:01:09;6.70;;;3.38;;
60370;SDS011;48550;40.588;49.684;2023-08-21T02:03:34;10.95;;;4.10;;
60370;SDS011;48550;40.588;49.684;2023-08-21T02:06:01;12.57;;;8.45;;
60370;SDS011;48550;40.588;49.684;2023-08-21T02:08:30;9.63;;;5.28;;
60370;SDS011;48550;40.588;49.684;2023-08-21T02:10:59;8.75;;;4.78;;
60370;SDS011;48550;40.588;49.684;2023-08-21T02:13:25;11.65;;;4.80;;
60370;SDS011;48550;40.588;49.684;2023-08-21T02:15:51;14.60;;;5.35;;
60370;SDS011;48550;40.588;49.684;2023-08-21T02:18:17;14.00;;;4.63;;
60370;SDS011;48550;40.588;49.684;2023-08-21T02:20:43;7.57;;;4.78;;
60370;SDS011;48550;40.588;49.684;2023-08-21T02:23:08;8.13;;;4.80;;
60370;SDS011;48550;40.588;49.684;2023-08-21T02:25:34;11.82;;;5.07;;
60370;SDS011;48550;40.588;49.684;2023-08-21T02:28:00;10.77;;;4.88;;
60370;SDS011;48550;40.588;49.684;2023-08-21T02:30:27;8.52;;;4.50;;
60370;SDS011;48550;40.588;49.684;2023-08-21T02:32:54;7.95;;;4.03;;
60370;SDS011;48550;40.588;49.684;2023-08-21T02:35:20;9.45;;;4.07;;
60370;SDS011;48550;40.588;49.684;2023-08-21T02:37:46;7.72;;;4.18;;
60370;SDS011;48550;40.588;49.684;2023-08-21T02:40:11;14.40;;;4.60;;
60370;SDS011;48550;40.588;49.684;2023-08-21T02:42:37;9.18;;;4.70;;
60370;SDS011;48550;40.588;49.684;2023-08-21T02:45:03;13.63;;;4.10;;
60370;SDS011;48550;40.588;49.684;2023-08-21T02:47:39;10.07;;;5.00;;
60370;SDS011;48550;40.588;49.684;2023-08-21T02:50:06;17.30;;;5.30;;
60370;SDS011;48550;40.588;49.684;2023-08-21T02:52:33;15.20;;;5.13;;
60370;SDS011;48550;40.588;49.684;2023-08-21T02:55:00;12.15;;;4.28;;
60370;SDS011;48550;40.588;49.684;2023-08-21T02:57:26;10.90;;;4.40;;
60370;SDS011;48550;40.588;49.684;2023-08-21T02:59:53;12.18;;;4.43;;
60370;SDS011;48550;40.588;49.684;2023-08-21T03:02:19;8.80;;;3.90;;
60370;SDS011;48550;40.588;49.684;2023-08-21T03:04:46;16.90;;;4.78;;
60370;SDS011;48550;40.588;49.684;2023-08-21T03:07:12;14.48;;;4.40;;
60370;SDS011;48550;40.588;49.684;2023-08-21T03:09:37;17.55;;;4.50;;
60370;SDS011;48550;40.588;49.684;2023-08-21T03:12:04;19.95;;;6.00;;
60370;SDS011;48550;40.588;49.684;2023-08-21T03:14:30;17.23;;;5.10;;
60370;SDS011;48550;40.588;49.684;2023-08-21T03:16:55;18.80;;;4.80;;
60370;SDS011;48550;40.588;49.684;2023-08-21T03:19:21;17.73;;;4.72;;
60370;SDS011;48550;40.588;49.684;2023-08-21T03:21:47;10.65;;;4.65;;
60370;SDS011;48550;40.588;49.684;2023-08-21T03:24:13;14.38;;;5.32;;
60370;SDS011;48550;40.588;49.684;2023-08-21T03:26:38;14.40;;;4.90;;
60370;SDS011;48550;40.588;49.684;2023-08-21T03:29:04;15.82;;;4.90;;
60370;SDS011;48550;40.588;49.684;2023-08-21T03:31:30;20.80;;;5.28;;
60370;SDS011;48550;40.588;49.684;2023-08-21T03:33:56;19.17;;;5.40;;
60370;SDS011;48550;40.588;49.684;2023-08-21T03:36:22;21.45;;;6.75;;
60370;SDS011;48550;40.588;49.684;2023-08-21T03:39:06;12.43;;;5.32;;
60370;SDS011;48550;40.588;49.684;2023-08-21T03:41:32;20.45;;;5.47;;
60370;SDS011;48550;40.588;49.684;2023-08-21T03:43:57;26.95;;;5.90;;
60370;SDS011;48550;40.588;49.684;2023-08-21T03:46:23;27.45;;;6.55;;
60370;SDS011;48550;40.588;49.684;2023-08-21T03:48:49;23.52;;;5.75;;
60370;SDS011;48550;40.588;49.684;2023-08-21T03:51:15;27.90;;;6.63;;
60370;SDS011;48550;40.588;49.684;2023-08-21T03:53:41;18.42;;;5.60;;
60370;SDS011;48550;40.588;49.684;2023-08-21T03:56:07;22.17;;;6.18;;
60370;SDS011;48550;40.588;49.684;2023-08-21T03:58:33;32.97;;;8.05;;
60370;SDS011;48550;40.588;49.684;2023-08-21T04:00:59;18.85;;;6.35;;
60370;SDS011;48550;40.588;49.684;2023-08-21T04:03:24;25.85;;;7.60;;
60370;SDS011;48550;40.588;49.684;2023-08-21T04:05:52;40.20;;;6.95;;
60370;SDS011;48550;40.588;49.684;2023-08-21T04:08:19;35.05;;;7.22;;
60370;SDS011;48550;40.588;49.684;2023-08-21T04:10:45;38.83;;;7.88;;
60370;SDS011;48550;40.588;49.684;2023-08-21T04:13:11;17.42;;;6.15;;
60370;SDS011;48550;40.588;49.684;2023-08-21T04:15:36;15.18;;;6.13;;
60370;SDS011;48550;40.588;49.684;2023-08-21T04:18:02;11.20;;;5.45;;
60370;SDS011;48550;40.588;49.684;2023-08-21T04:20:28;27.52;;;7.35;;
60370;SDS011;48550;40.588;49.684;2023-08-21T04:22:54;23.88;;;8.00;;
60370;SDS011;48550;40.588;49.684;2023-08-21T04:25:20;24.70;;;7.85;;
60370;SDS011;48550;40.588;49.684;2023-08-21T04:27:45;22.83;;;7.38;;
60370;SDS011;48550;40.588;49.684;2023-08-21T04:30:11;20.33;;;7.32;;
60370;SDS011;48550;40.588;49.684;2023-08-21T04:32:37;25.00;;;6.85;;
60370;SDS011;48550;40.588;49.684;2023-08-21T04:35:03;26.40;;;7.43;;
60370;SDS011;48550;40.588;49.684;2023-08-21T04:37:30;27.85;;;8.20;;
60370;SDS011;48550;40.588;49.684;2023-08-21T04:39:56;21.88;;;8.57;;
60370;SDS011;48550;40.588;49.684;2023-08-21T04:42:22;23.52;;;6.90;;
60370;SDS011;48550;40.588;49.684;2023-08-21T04:44:48;25.00;;;5.90;;
60370;SDS011;48550;40.588;49.684;2023-08-21T04:47:23;16.70;;;6.22;;
60370;SDS011;48550;40.588;49.684;2023-08-21T04:49:53;17.08;;;5.70;;
60370;SDS011;48550;40.588;49.684;2023-08-21T04:52:20;21.90;;;7.25;;
60370;SDS011;48550;40.588;49.684;2023-08-21T04:54:49;19.77;;;5.57;;
60370;SDS011;48550;40.588;49.684;2023-08-21T04:57:15;18.27;;;5.25;;
60370;SDS011;48550;40.588;49.684;2023-08-21T04:59:42;22.17;;;5.68;;
60370;SDS011;48550;40.588;49.684;2023-08-21T05:02:08;17.08;;;5.78;;
60370;SDS011;48550;40.588;49.684;2023-08-21T05:04:36;13.40;;;5.55;;
60370;SDS011;48550;40.588;49.684;2023-08-21T05:07:02;17.92;;;6.13;;
60370;SDS011;48550;40.588;49.684;2023-08-21T05:09:29;16.40;;;5.35;;
60370;SDS011;48550;40.588;49.684;2023-08-21T05:11:55;20.10;;;5.70;;
60370;SDS011;48550;40.588;49.684;2023-08-21T05:14:21;17.05;;;5.53;;
60370;SDS011;48550;40.588;49.684;2023-08-21T05:16:48;16.88;;;5.18;;
60370;SDS011;48550;40.588;49.684;2023-08-21T05:19:14;15.57;;;4.90;;
60370;SDS011;48550;40.588;49.684;2023-08-21T05:21:40;11.65;;;4.65;;
60370;SDS011;48550;40.588;49.684;2023-08-21T05:24:05;14.90;;;5.22;;
60370;SDS011;48550;40.588;49.684;2023-08-21T05:26:31;17.38;;;4.78;;
60370;SDS011;48550;40.588;49.684;2023-08-21T05:28:57;13.23;;;4.50;;
60370;SDS011;48550;40.588;49.684;2023-08-21T05:31:22;14.90;;;4.93;;
60370;SDS011;48550;40.588;49.684;2023-08-21T05:33:48;14.52;;;4.88;;
60370;SDS011;48550;40.588;49.684;2023-08-21T05:36:14;11.63;;;4.25;;
60370;SDS011;48550;40.588;49.684;2023-08-21T05:38:40;13.75;;;5.22;;
60370;SDS011;48550;40.588;49.684;2023-08-21T05:41:05;12.77;;;4.25;;
60370;SDS011;48550;40.588;49.684;2023-08-21T05:43:31;13.10;;;4.30;;
60370;SDS011;48550;40.588;49.684;2023-08-21T05:45:57;19.77;;;4.68;;
60370;SDS011;48550;40.588;49.684;2023-08-21T05:48:22;14.77;;;4.95;;
60370;SDS011;48550;40.588;49.684;2023-08-21T05:50:51;15.90;;;5.85;;
60370;SDS011;48550;40.588;49.684;2023-08-21T05:53:17;13.32;;;4.25;;
60370;SDS011;48550;40.588;49.684;2023-08-21T05:55:43;12.65;;;3.88;;
60370;SDS011;48550;40.588;49.684;2023-08-21T05:58:08;16.00;;;4.32;;
60370;SDS011;48550;40.588;49.684;2023-08-21T06:00:34;9.25;;;3.60;;
60370;SDS011;48550;40.588;49.684;2023-08-21T06:03:01;8.10;;;3.88;;
60370;SDS011;48550;40.588;49.684;2023-08-21T06:05:26;16.73;;;3.72;;
60370;SDS011;48550;40.588;49.684;2023-08-21T06:07:52;16.73;;;3.70;;
60370;SDS011;48550;40.588;49.684;2023-08-21T06:10:18;12.02;;;3.65;;
60370;SDS011;48550;40.588;49.684;2023-08-21T06:12:44;13.45;;;3.53;;
60370;SDS011;48550;40.588;49.684;2023-08-21T06:15:10;13.85;;;3.95;;
60370;SDS011;48550;40.588;49.684;2023-08-21T06:17:36;11.77;;;3.08;;
60370;SDS011;48550;40.588;49.684;2023-08-21T06:20:03;9.32;;;3.20;;
60370;SDS011;48550;40.588;49.684;2023-08-21T06:22:31;5.47;;;2.80;;
60370;SDS011;48550;40.588;49.684;2023-08-21T06:24:57;6.45;;;3.05;;
60370;SDS011;48550;40.588;49.684;2023-08-21T06:27:23;9.40;;;3.40;;
60370;SDS011;48550;40.588;49.684;2023-08-21T06:29:48;8.23;;;3.50;;
60370;SDS011;48550;40.588;49.684;2023-08-21T06:32:14;7.32;;;3.45;;
60370;SDS011;48550;40.588;49.684;2023-08-21T06:34:40;6.25;;;3.05;;
60370;SDS011;48550;40.588;49.684;2023-08-21T06:37:05;8.63;;;3.78;;
60370;SDS011;48550;40.588;49.684;2023-08-21T06:39:32;10.68;;;3.40;;
60370;SDS011;48550;40.588;49.684;2023-08-21T06:41:59;11.50;;;3.63;;
60370;SDS011;48550;40.588;49.684;2023-08-21T06:44:25;11.73;;;3.60;;
60370;SDS011;48550;40.588;49.684;2023-08-21T06:46:51;6.82;;;2.85;;
60370;SDS011;48550;40.588;49.684;2023-08-21T06:49:17;11.85;;;3.33;;
60370;SDS011;48550;40.588;49.684;2023-08-21T06:51:43;8.77;;;4.18;;
60370;SDS011;48550;40.588;49.684;2023-08-21T06:54:09;7.45;;;3.33;;
60370;SDS011;48550;40.588;49.684;2023-08-21T06:56:34;10.52;;;3.00;;
60370;SDS011;48550;40.588;49.684;2023-08-21T06:59:00;17.05;;;3.28;;
60370;SDS011;48550;40.588;49.684;2023-08-21T07:01:27;8.60;;;3.50;;
60370;SDS011;48550;40.588;49.684;2023-08-21T07:03:57;11.43;;;3.53;;
60370;SDS011;48550;40.588;49.684;2023-08-21T07:06:23;9.18;;;3.25;;
60370;SDS011;48550;40.588;49.684;2023-08-21T07:08:48;6.53;;;3.25;;
60370;SDS011;48550;40.588;49.684;2023-08-21T07:11:14;8.68;;;3.42;;
60370;SDS011;48550;40.588;49.684;2023-08-21T07:13:42;13.75;;;3.75;;
60370;SDS011;48550;40.588;49.684;2023-08-21T07:16:08;11.05;;;3.53;;
60370;SDS011;48550;40.588;49.684;2023-08-21T07:18:34;7.13;;;2.90;;
60370;SDS011;48550;40.588;49.684;2023-08-21T07:21:04;10.50;;;3.30;;
60370;SDS011;48550;40.588;49.684;2023-08-21T07:23:33;8.00;;;3.20;;
60370;SDS011;48550;40.588;49.684;2023-08-21T07:25:59;7.85;;;3.10;;
60370;SDS011;48550;40.588;49.684;2023-08-21T07:28:25;11.30;;;3.55;;
60370;SDS011;48550;40.588;49.684;2023-08-21T07:30:54;7.28;;;3.38;;
60370;SDS011;48550;40.588;49.684;2023-08-21T07:33:22;12.43;;;3.67;;
60370;SDS011;48550;40.588;49.684;2023-08-21T07:35:47;7.72;;;3.13;;
60370;SDS011;48550;40.588;49.684;2023-08-21T07:38:22;12.52;;;3.33;;
60370;SDS011;48550;40.588;49.684;2023-08-21T07:40:48;5.47;;;2.97;;
60370;SDS011;48550;40.588;49.684;2023-08-21T07:43:13;8.55;;;3.28;;
60370;SDS011;48550;40.588;49.684;2023-08-21T07:45:39;10.35;;;3.90;;
60370;SDS011;48550;40.588;49.684;2023-08-21T07:48:05;7.93;;;3.50;;
60370;SDS011;48550;40.588;49.684;2023-08-21T07:50:30;7.47;;;3.08;;
60370;SDS011;48550;40.588;49.684;2023-08-21T07:52:56;8.88;;;3.28;;
60370;SDS011;48550;40.588;49.684;2023-08-21T07:55:22;6.35;;;3.17;;
60370;SDS011;48550;40.588;49.684;2023-08-21T07:57:48;13.32;;;3.70;;
60370;SDS011;48550;40.588;49.684;2023-08-21T08:00:13;8.55;;;3.72;;
60370;SDS011;48550;40.588;49.684;2023-08-21T08:02:39;8.68;;;3.45;;
60370;SDS011;48550;40.588;49.684;2023-08-21T08:05:05;8.38;;;3.40;;
60370;SDS011;48550;40.588;49.684;2023-08-21T08:07:31;8.68;;;3.45;;
60370;SDS011;48550;40.588;49.684;2023-08-21T08:09:57;7.43;;;3.58;;
60370;SDS011;48550;40.588;49.684;2023-08-21T08:12:23;7.70;;;3.58;;
60370;SDS011;48550;40.588;49.684;2023-08-21T08:14:48;5.75;;;3.40;;
60370;SDS011;48550;40.588;49.684;2023-08-21T08:17:14;8.30;;;3.53;;
60370;SDS011;48550;40.588;49.684;2023-08-21T08:19:40;6.50;;;3.20;;
60370;SDS011;48550;40.588;49.684;2023-08-21T08:22:05;10.65;;;3.53;;
60370;SDS011;48550;40.588;49.684;2023-08-21T08:24:31;9.63;;;3.72;;
60370;SDS011;48550;40.588;49.684;2023-08-21T08:26:57;8.85;;;3.97;;
60370;SDS011;48550;40.588;49.684;2023-08-21T08:29:22;9.20;;;3.63;;
60370;SDS011;48550;40.588;49.684;2023-08-21T08:31:48;9.50;;;3.70;;
60370;SDS011;48550;40.588;49.684;2023-08-21T08:34:14;10.27;;;4.40;;
60370;SDS011;48550;40.588;49.684;2023-08-21T08:36:39;9.18;;;3.70;;
60370;SDS011;48550;40.588;49.684;2023-08-21T08:39:06;8.30;;;4.00;;
60370;SDS011;48550;40.588;49.684;2023-08-21T08:41:41;8.15;;;3.28;;
60370;SDS011;48550;40.588;49.684;2023-08-21T08:44:13;6.53;;;3.60;;
60370;SDS011;48550;40.588;49.684;2023-08-21T08:46:42;7.80;;;3.67;;
60370;SDS011;48550;40.588;49.684;2023-08-21T08:49:08;7.50;;;3.58;;
60370;SDS011;48550;40.588;49.684;2023-08-21T08:51:34;7.45;;;3.50;;
60370;SDS011;48550;40.588;49.684;2023-08-21T08:54:03;5.80;;;3.50;;
60370;SDS011;48550;40.588;49.684;2023-08-21T08:56:29;6.22;;;3.92;;
60370;SDS011;48550;40.588;49.684;2023-08-21T08:58:54;6.00;;;3.70;;
60370;SDS011;48550;40.588;49.684;2023-08-21T09:01:20;5.63;;;3.38;;
60370;SDS011;48550;40.588;49.684;2023-08-21T09:03:46;7.57;;;3.42;;
60370;SDS011;48550;40.588;49.684;2023-08-21T09:06:12;7.55;;;3.72;;
60370;SDS011;48550;40.588;49.684;2023-08-21T09:08:37;8.98;;;3.42;;
60370;SDS011;48550;40.588;49.684;2023-08-21T09:11:03;11.77;;;3.92;;
60370;SDS011;48550;40.588;49.684;2023-08-21T09:13:29;9.20;;;3.75;;
60370;SDS011;48550;40.588;49.684;2023-08-21T09:15:56;8.02;;;3.75;;
60370;SDS011;48550;40.588;49.684;2023-08-21T09:18:23;8.45;;;3.90;;
60370;SDS011;48550;40.588;49.684;2023-08-21T09:20:49;6.88;;;4.00;;
60370;SDS011;48550;40.588;49.684;2023-08-21T09:23:15;6.53;;;4.03;;
60370;SDS011;48550;40.588;49.684;2023-08-21T09:25:43;11.50;;;4.05;;
60370;SDS011;48550;40.588;49.684;2023-08-21T09:28:13;7.85;;;3.53;;
60370;SDS011;48550;40.588;49.684;2023-08-21T09:30:50;10.68;;;3.85;;
60370;SDS011;48550;40.588;49.684;2023-08-21T09:33:17;10.07;;;3.63;;
60370;SDS011;48550;40.588;49.684;2023-08-21T09:35:44;8.52;;;3.85;;
60370;SDS011;48550;40.588;49.684;2023-08-21T09:38:10;5.68;;;3.40;;
60370;SDS011;48550;40.588;49.684;2023-08-21T09:40:40;11.77;;;4.65;;
60370;SDS011;48550;40.588;49.684;2023-08-21T09:43:08;9.55;;;4.07;;
60370;SDS011;48550;40.588;49.684;2023-08-21T09:45:36;9.95;;;3.92;;
60370;SDS011;48550;40.588;49.684;2023-08-21T09:48:02;6.60;;;3.70;;
60370;SDS011;48550;40.588;49.684;2023-08-21T09:50:29;8.73;;;3.90;;
60370;SDS011;48550;40.588;49.684;2023-08-21T09:52:56;8.23;;;3.88;;
60370;SDS011;48550;40.588;49.684;2023-08-21T09:55:23;7.78;;;3.80;;
60370;SDS011;48550;40.588;49.684;2023-08-21T09:57:51;9.93;;;3.80;;
60370;SDS011;48550;40.588;49.684;2023-08-21T10:00:25;8.10;;;3.92;;
60370;SDS011;48550;40.588;49.684;2023-08-21T10:02:53;8.82;;;3.45;;
60370;SDS011;48550;40.588;49.684;2023-08-21T10:05:20;7.95;;;3.80;;
60370;SDS011;48550;40.588;49.684;2023-08-21T10:07:47;7.30;;;3.97;;
60370;SDS011;48550;40.588;49.684;2023-08-21T10:10:15;11.95;;;4.45;;
60370;SDS011;48550;40.588;49.684;2023-08-21T10:12:41;8.88;;;4.10;;
60370;SDS011;48550;40.588;49.684;2023-08-21T10:15:07;7.45;;;3.70;;
60370;SDS011;48550;40.588;49.684;2023-08-21T10:17:36;6.35;;;3.85;;
60370;SDS011;48550;40.588;49.684;2023-08-21T10:20:03;9.35;;;4.13;;
60370;SDS011;48550;40.588;49.684;2023-08-21T10:22:41;6.18;;;3.58;;
60370;SDS011;48550;40.588;49.684;2023-08-21T10:25:16;9.32;;;4.05;;
60370;SDS011;48550;40.588;49.684;2023-08-21T10:27:45;6.82;;;3.50;;
60370;SDS011;48550;40.588;49.684;2023-08-21T10:30:15;6.88;;;3.78;;
60370;SDS011;48550;40.588;49.684;2023-08-21T10:32:45;7.57;;;3.75;;
60370;SDS011;48550;40.588;49.684;2023-08-21T10:35:34;6.57;;;3.53;;
60370;SDS011;48550;40.588;49.684;2023-08-21T10:38:17;10.52;;;3.70;;
60370;SDS011;48550;40.588;49.684;2023-08-21T10:43:38;8.15;;;3.58;;
60370;SDS011;48550;40.588;49.684;2023-08-21T10:46:08;6.60;;;3.20;;
60370;SDS011;48550;40.588;49.684;2023-08-21T10:48:35;7.07;;;3.70;;
60370;SDS011;48550;40.588;49.684;2023-08-21T10:51:02;9.27;;;3.55;;
60370;SDS011;48550;40.588;49.684;2023-08-21T10:53:29;11.98;;;3.67;;
60370;SDS011;48550;40.588;49.684;2023-08-21T10:55:56;6.40;;;3.55;;
60370;SDS011;48550;40.588;49.684;2023-08-21T10:58:23;6.57;;;3.60;;
60370;SDS011;48550;40.588;49.684;2023-08-21T11:00:58;7.68;;;3.55;;
60370;SDS011;48550;40.588;49.684;2023-08-21T11:03:24;7.53;;;3.75;;
60370;SDS011;48550;40.588;49.684;2023-08-21T11:05:59;8.55;;;4.40;;
60370;SDS011;48550;40.588;49.684;2023-08-21T11:08:29;7.43;;;3.70;;
60370;SDS011;48550;40.588;49.684;2023-08-21T11:10:54;6.85;;;3.60;;
60370;SDS011;48550;40.588;49.684;2023-08-21T11:13:23;7.60;;;3.53;;
60370;SDS011;48550;40.588;49.684;2023-08-21T11:15:49;10.13;;;3.42;;
60370;SDS011;48550;40.588;49.684;2023-08-21T11:18:37;7.20;;;3.38;;
60370;SDS011;48550;40.588;49.684;2023-08-21T11:21:07;5.15;;;3.55;;
60370;SDS011;48550;40.588;49.684;2023-08-21T11:23:41;8.23;;;4.15;;
60370;SDS011;48550;40.588;49.684;2023-08-21T11:26:11;8.57;;;3.90;;
60370;SDS011;48550;40.588;49.684;2023-08-21T11:28:38;10.65;;;4.00;;
60370;SDS011;48550;40.588;49.684;2023-08-21T11:31:04;7.55;;;4.10;;
60370;SDS011;48550;40.588;49.684;2023-08-21T11:33:31;7.65;;;4.40;;
60370;SDS011;48550;40.588;49.684;2023-08-21T11:35:57;9.77;;;4.47;;
60370;SDS011;48550;40.588;49.684;2023-08-21T11:38:25;6.57;;;4.10;;
60370;SDS011;48550;40.588;49.684;2023-08-21T11:40:59;8.13;;;4.32;;
60370;SDS011;48550;40.588;49.684;2023-08-21T11:43:36;7.13;;;4.15;;
60370;SDS011;48550;40.588;49.684;2023-08-21T11:46:03;11.48;;;4.55;;
60370;SDS011;48550;40.588;49.684;2023-08-21T11:48:29;7.68;;;4.05;;
60370;SDS011;48550;40.588;49.684;2023-08-21T11:50:56;10.38;;;4.38;;
60370;SDS011;48550;40.588;49.684;2023-08-21T11:53:41;7.55;;;4.30;;
60370;SDS011;48550;40.588;49.684;2023-08-21T11:56:11;9.15;;;4.05;;
60370;SDS011;48550;40.588;49.684;2023-08-21T11:58:41;8.43;;;3.90;;
60370;SDS011;48550;40.588;49.684;2023-08-21T12:01:08;11.25;;;3.60;;
60370;SDS011;48550;40.588;49.684;2023-08-21T12:03:35;9.05;;;4.10;;
60370;SDS011;48550;40.588;49.684;2023-08-21T12:06:09;10.68;;;4.22;;
60370;SDS011;48550;40.588;49.684;2023-08-21T12:08:36;9.27;;;3.92;;
60370;SDS011;48550;40.588;49.684;2023-08-21T12:11:02;12.32;;;3.17;;
60370;SDS011;48550;40.588;49.684;2023-08-21T12:13:28;7.35;;;3.55;;
60370;SDS011;48550;40.588;49.684;2023-08-21T12:15:55;4.50;;;2.83;;
60370;SDS011;48550;40.588;49.684;2023-08-21T12:18:20;9.27;;;3.25;;
60370;SDS011;48550;40.588;49.684;2023-08-21T12:20:46;14.20;;;3.97;;
60370;SDS011;48550;40.588;49.684;2023-08-21T12:23:12;7.05;;;3.10;;
60370;SDS011;48550;40.588;49.684;2023-08-21T12:25:37;9.57;;;3.10;;
60370;SDS011;48550;40.588;49.684;2023-08-21T12:28:03;8.00;;;3.15;;
60370;SDS011;48550;40.588;49.684;2023-08-21T12:30:32;9.75;;;3.38;;
60370;SDS011;48550;40.588;49.684;2023-08-21T12:32:57;6.75;;;3.25;;
60370;SDS011;48550;40.588;49.684;2023-08-21T12:35:23;8.02;;;3.10;;
60370;SDS011;48550;40.588;49.684;2023-08-21T12:37:49;5.18;;;3.20;;
60370;SDS011;48550;40.588;49.684;2023-08-21T12:40:14;8.95;;;3.55;;
60370;SDS011;48550;40.588;49.684;2023-08-21T12:42:40;6.03;;;3.38;;
60370;SDS011;48550;40.588;49.684;2023-08-21T12:45:06;10.60;;;3.25;;
60370;SDS011;48550;40.588;49.684;2023-08-21T12:47:32;9.07;;;3.03;;
60370;SDS011;48550;40.588;49.684;2023-08-21T12:49:58;6.13;;;2.80;;
60370;SDS011;48550;40.588;49.684;2023-08-21T12:52:24;8.35;;;3.35;;
60370;SDS011;48550;40.588;49.684;2023-08-21T12:54:49;12.23;;;3.30;;
60370;SDS011;48550;40.588;49.684;2023-08-21T12:57:15;6.28;;;3.40;;
60370;SDS011;48550;40.588;49.684;2023-08-21T12:59:42;6.53;;;3.22;;
60370;SDS011;48550;40.588;49.684;2023-08-21T13:02:08;17.27;;;3.55;;
60370;SDS011;48550;40.588;49.684;2023-08-21T13:04:33;7.55;;;2.90;;
60370;SDS011;48550;40.588;49.684;2023-08-21T13:06:59;11.43;;;3.20;;
60370;SDS011;48550;40.588;49.684;2023-08-21T13:09:26;8.95;;;3.03;;
60370;SDS011;48550;40.588;49.684;2023-08-21T13:11:53;11.65;;;3.42;;
60370;SDS011;48550;40.588;49.684;2023-08-21T13:14:19;18.25;;;3.90;;
60370;SDS011;48550;40.588;49.684;2023-08-21T13:16:44;7.30;;;3.30;;
60370;SDS011;48550;40.588;49.684;2023-08-21T13:19:10;9.13;;;3.10;;
60370;SDS011;48550;40.588;49.684;2023-08-21T13:21:36;8.57;;;3.30;;
60370;SDS011;48550;40.588;49.684;2023-08-21T13:24:02;9.15;;;3.13;;
60370;SDS011;48550;40.588;49.684;2023-08-21T13:26:29;9.63;;;3.00;;
60370;SDS011;48550;40.588;49.684;2023-08-21T13:28:56;5.25;;;2.72;;
60370;SDS011;48550;40.588;49.684;2023-08-21T13:31:22;8.18;;;2.83;;
60370;SDS011;48550;40.588;49.684;2023-08-21T13:33:48;8.20;;;2.78;;
60370;SDS011;48550;40.588;49.684;2023-08-21T13:36:15;7.38;;;2.83;;
60370;SDS011;48550;40.588;49.684;2023-08-21T13:38:41;8.23;;;3.13;;
60370;SDS011;48550;40.588;49.684;2023-08-21T13:41:07;34.50;;;20.48;;
60370;SDS011;48550;40.588;49.684;2023-08-21T13:43:34;9.15;;;4.88;;
60370;SDS011;48550;40.588;49.684;2023-08-21T13:46:01;10.40;;;3.83;;
60370;SDS011;48550;40.588;49.684;2023-08-21T13:48:29;11.40;;;3.38;;
60370;SDS011;48550;40.588;49.684;2023-08-21T13:50:55;8.75;;;3.00;;
60370;SDS011;48550;40.588;49.684;2023-08-21T13:53:21;7.20;;;3.20;;
60370;SDS011;48550;40.588;49.684;2023-08-21T13:55:47;10.57;;;2.88;;
60370;SDS011;48550;40.588;49.684;2023-08-21T13:58:13;9.40;;;3.08;;
60370;SDS011;48550;40.588;49.684;2023-08-21T14:00:38;10.82;;;2.85;;
60370;SDS011;48550;40.588;49.684;2023-08-21T14:03:04;9.95;;;3.10;;
60370;SDS011;48550;40.588;49.684;2023-08-21T14:05:30;12.70;;;9.82;;
60370;SDS011;48550;40.588;49.684;2023-08-21T14:07:56;41.72;;;29.23;;
60370;SDS011;48550;40.588;49.684;2023-08-21T14:10:23;9.88;;;3.20;;
60370;SDS011;48550;40.588;49.684;2023-08-21T14:12:49;6.43;;;2.70;;
60370;SDS011;48550;40.588;49.684;2023-08-21T14:15:16;6.72;;;3.28;;
60370;SDS011;48550;40.588;49.684;2023-08-21T14:17:43;14.05;;;3.05;;
60370;SDS011;48550;40.588;49.684;2023-08-21T14:20:09;10.15;;;3.33;;
60370;SDS011;48550;40.588;49.684;2023-08-21T14:22:36;10.88;;;4.13;;
60370;SDS011;48550;40.588;49.684;2023-08-21T14:25:03;10.45;;;3.70;;
60370;SDS011;48550;40.588;49.684;2023-08-21T14:27:32;14.50;;;3.85;;
60370;SDS011;48550;40.588;49.684;2023-08-21T14:29:58;7.93;;;3.40;;
60370;SDS011;48550;40.588;49.684;2023-08-21T14:32:24;10.35;;;3.75;;